Time,TemperatureF,DewpointF,PressureIn,WindDirection,WindDirectionDegrees,WindSpeedMPH,WindSpeedGustMPH,Humidity,HourlyPrecipIn,Conditions,Clouds,dailyrainin,SolarRadiationWatts/m^2,SoftwareType,DateUTC
2013-04-24 00:02:00,51.0,46.0,-100.00,NNE,19,0.0,6.0,84,0.00,,,0.00,0.000000,,2013-04-24 07:02:00,
2013-04-24 00:32:00,49.0,45.0,-100.00,SW,235,0.0,0.0,87,0.00,,,0.00,0.000000,,2013-04-24 07:32:00,
2013-04-24 00:42:00,49.0,45.0,-100.00,SW,235,0.0,0.0,87,0.00,,,0.00,0.000000,,2013-04-24 07:42:00,
2013-04-24 00:52:00,49.0,45.0,-100.00,SW,235,0.0,0.0,87,0.00,,,0.00,0.000000,,2013-04-24 07:52:00,
2013-04-24 01:01:00,49.0,45.0,-100.00,SW,235,0.0,0.0,87,0.00,,,0.00,0.000000,,2013-04-24 08:01:00,
2013-04-24 01:33:00,48.0,45.0,-100.00,NW,310,0.0,4.0,89,0.00,,,0.00,0.000000,,2013-04-24 08:33:00,
2013-04-24 01:42:00,48.0,45.0,-100.00,NW,310,0.0,4.0,89,0.00,,,0.00,0.000000,,2013-04-24 08:42:00,
2013-04-24 01:52:00,48.0,45.0,-100.00,NW,310,0.0,4.0,89,0.00,,,0.00,0.000000,,2013-04-24 08:52:00,
2013-04-24 02:01:00,48.0,45.0,-100.00,NW,310,0.0,4.0,89,0.00,,,0.00,0.000000,,2013-04-24 09:01:00,
2013-04-24 02:21:00,46.0,44.0,-100.00,East,87,1.0,4.0,92,0.00,,,-99.99,0.000000,,2013-04-24 09:21:00,
2013-04-24 02:33:00,46.0,44.0,-100.00,East,87,1.0,4.0,92,0.00,,,-99.99,0.000000,,2013-04-24 09:33:00,
2013-04-24 02:42:00,46.0,44.0,-100.00,East,87,1.0,4.0,92,0.00,,,-99.99,0.000000,,2013-04-24 09:42:00,
2013-04-24 02:53:00,46.0,44.0,-100.00,East,87,1.0,4.0,92,0.00,,,-99.99,0.000000,,2013-04-24 09:53:00,
2013-04-24 03:02:00,46.0,44.0,-100.00,East,87,1.0,4.0,92,0.00,,,-99.99,0.000000,,2013-04-24 10:02:00,
2013-04-24 03:33:00,44.0,42.0,-100.00,SW,236,0.0,4.0,92,0.00,,,0.00,0.000000,,2013-04-24 10:33:00,
2013-04-24 03:42:00,44.0,42.0,-100.00,SW,236,0.0,4.0,92,0.00,,,0.00,0.000000,,2013-04-24 10:42:00,
2013-04-24 03:53:00,44.0,42.0,-100.00,SW,236,0.0,4.0,92,0.00,,,0.00,0.000000,,2013-04-24 10:53:00,
2013-04-24 04:02:00,44.0,42.0,-100.00,SW,236,0.0,4.0,92,0.00,,,0.00,0.000000,,2013-04-24 11:02:00,
2013-04-24 04:32:00,43.0,41.0,-100.00,SSW,212,0.0,2.0,94,0.00,,,0.00,0.000000,,2013-04-24 11:32:00,
2013-04-24 04:42:00,43.0,41.0,-100.00,SSW,212,0.0,2.0,94,0.00,,,0.00,0.000000,,2013-04-24 11:42:00,
2013-04-24 04:52:00,43.0,41.0,-100.00,SSW,212,0.0,2.0,94,0.00,,,0.00,0.000000,,2013-04-24 11:52:00,
2013-04-24 05:01:00,43.0,41.0,-100.00,SSW,212,0.0,2.0,94,0.00,,,0.00,0.000000,,2013-04-24 12:01:00,
2013-04-24 05:32:00,42.0,41.0,-100.00,NE,48,0.0,2.0,95,0.00,,,0.00,0.000000,,2013-04-24 12:32:00,
2013-04-24 05:42:00,42.0,41.0,-100.00,NE,48,0.0,2.0,95,0.00,,,0.00,0.000000,,2013-04-24 12:42:00,
2013-04-24 05:52:00,42.0,41.0,-100.00,NE,48,0.0,2.0,95,0.00,,,0.00,0.000000,,2013-04-24 12:52:00,
2013-04-24 06:01:00,42.0,41.0,-100.00,NE,48,0.0,2.0,95,0.00,,,0.00,0.000000,,2013-04-24 13:01:00,
2013-04-24 06:32:00,41.0,39.0,-100.00,NE,37,0.0,2.0,94,0.00,,,0.00,0.000000,,2013-04-24 13:32:00,
2013-04-24 06:42:00,41.0,39.0,-100.00,NE,37,0.0,2.0,94,0.00,,,0.00,0.000000,,2013-04-24 13:42:00,
2013-04-24 06:52:00,41.0,39.0,-100.00,NE,37,0.0,2.0,94,0.00,,,0.00,0.000000,,2013-04-24 13:52:00,
2013-04-24 07:01:00,41.0,39.0,-100.00,NE,37,0.0,2.0,94,0.00,,,0.00,0.000000,,2013-04-24 14:01:00,
2013-04-24 08:33:00,52.0,45.0,-100.00,East,98,1.0,3.0,76,-99.99,,,0.00,175.000000,,2013-04-24 15:33:00,
2013-04-24 08:43:00,52.0,45.0,-100.00,East,98,1.0,3.0,76,-99.99,,,0.00,175.000000,,2013-04-24 15:43:00,
2013-04-24 08:53:00,52.0,45.0,-100.00,East,98,1.0,3.0,76,-99.99,,,0.00,175.000000,,2013-04-24 15:53:00,
2013-04-24 09:03:00,52.0,45.0,-100.00,East,98,1.0,3.0,76,-99.99,,,0.00,175.000000,,2013-04-24 16:03:00,
2013-04-24 10:32:00,63.0,43.0,-100.00,East,84,8.0,14.0,48,-99.99,,,0.00,597.000000,,2013-04-24 17:32:00,
2013-04-24 10:42:00,63.0,43.0,-100.00,East,84,8.0,14.0,48,-99.99,,,0.00,597.000000,,2013-04-24 17:42:00,
2013-04-24 10:52:00,63.0,43.0,-100.00,East,84,8.0,14.0,48,-99.99,,,0.00,597.000000,,2013-04-24 17:52:00,
2013-04-24 11:02:00,63.0,43.0,-100.00,East,84,8.0,14.0,48,-99.99,,,0.00,597.000000,,2013-04-24 18:02:00,
2013-04-24 11:33:00,66.0,47.0,-100.00,East,87,7.0,14.0,50,0.00,,,0.00,764.000000,,2013-04-24 18:33:00,
2013-04-24 11:43:00,66.0,47.0,-100.00,East,87,7.0,14.0,50,0.00,,,0.00,764.000000,,2013-04-24 18:43:00,
2013-04-24 11:52:00,66.0,47.0,-100.00,East,87,7.0,14.0,50,0.00,,,0.00,764.000000,,2013-04-24 18:52:00,
2013-04-24 12:01:00,66.0,47.0,-100.00,East,87,7.0,14.0,50,0.00,,,0.00,764.000000,,2013-04-24 19:01:00,
2013-04-24 12:22:00,67.0,48.0,-100.00,East,92,11.0,17.0,50,0.00,,,0.00,883.000000,,2013-04-24 19:22:00,
2013-04-24 12:32:00,67.0,48.0,-100.00,East,92,11.0,17.0,50,0.00,,,0.00,883.000000,,2013-04-24 19:32:00,
2013-04-24 12:42:00,67.0,48.0,-100.00,East,92,11.0,17.0,50,0.00,,,0.00,883.000000,,2013-04-24 19:42:00,
2013-04-24 12:52:00,67.0,48.0,-100.00,East,92,11.0,17.0,50,0.00,,,0.00,883.000000,,2013-04-24 19:52:00,
2013-04-24 13:01:00,67.0,48.0,-100.00,East,92,11.0,17.0,50,0.00,,,0.00,883.000000,,2013-04-24 20:01:00,
2013-04-24 13:32:00,70.0,48.0,-100.00,East,91,11.0,18.0,45,0.00,,,0.00,940.000000,,2013-04-24 20:32:00,
2013-04-24 13:42:00,70.0,48.0,-100.00,East,91,11.0,18.0,45,0.00,,,0.00,940.000000,,2013-04-24 20:42:00,
2013-04-24 13:52:00,70.0,48.0,-100.00,East,91,11.0,18.0,45,0.00,,,0.00,940.000000,,2013-04-24 20:52:00,
2013-04-24 14:02:00,70.0,48.0,-100.00,East,91,11.0,18.0,45,0.00,,,0.00,940.000000,,2013-04-24 21:02:00,
2013-04-24 14:33:00,73.0,47.0,-100.00,East,94,11.0,16.0,39,0.00,,,0.00,942.000000,,2013-04-24 21:33:00,
2013-04-24 14:42:00,73.0,47.0,-100.00,East,94,11.0,16.0,39,0.00,,,0.00,942.000000,,2013-04-24 21:42:00,
2013-04-24 14:52:00,73.0,47.0,-100.00,East,94,11.0,16.0,39,0.00,,,0.00,942.000000,,2013-04-24 21:52:00,
2013-04-24 15:33:00,76.0,46.0,-100.00,East,98,9.0,17.0,35,-99.99,,,0.00,886.000000,,2013-04-24 22:33:00,
2013-04-24 16:32:00,76.0,46.0,-100.00,East,94,7.0,16.0,35,-99.99,,,0.00,770.000000,,2013-04-24 23:32:00,
2013-04-24 17:32:00,74.0,46.0,-100.00,ESE,104,9.0,18.0,37,-99.99,,,0.00,603.000000,,2013-04-25 00:32:00,
2013-04-24 18:32:00,71.0,47.0,-100.00,East,90,6.0,15.0,43,-99.99,,,0.00,390.000000,,2013-04-25 01:32:00,
2013-04-24 18:42:00,71.0,47.0,-100.00,East,90,6.0,15.0,43,-99.99,,,0.00,390.000000,,2013-04-25 01:42:00,
2013-04-24 18:52:00,71.0,47.0,-100.00,East,90,6.0,15.0,43,-99.99,,,0.00,390.000000,,2013-04-25 01:52:00,
2013-04-24 19:32:00,64.0,47.0,-100.00,ENE,75,3.0,11.0,55,-99.99,,,0.00,74.000000,,2013-04-25 02:32:00,
2013-04-24 19:42:00,64.0,47.0,-100.00,ENE,75,3.0,11.0,55,-99.99,,,0.00,74.000000,,2013-04-25 02:42:00,
2013-04-24 19:51:00,64.0,47.0,-100.00,ENE,75,3.0,11.0,55,-99.99,,,0.00,74.000000,,2013-04-25 02:51:00,
2013-04-24 20:02:00,64.0,47.0,-100.00,ENE,75,3.0,11.0,55,-99.99,,,0.00,74.000000,,2013-04-25 03:02:00,
2013-04-24 20:22:00,59.0,48.0,-100.00,East,101,3.0,8.0,67,-99.99,,,0.00,12.000000,,2013-04-25 03:22:00,
2013-04-24 20:33:00,59.0,48.0,-100.00,East,101,3.0,8.0,67,-99.99,,,0.00,12.000000,,2013-04-25 03:33:00,
2013-04-24 20:43:00,59.0,48.0,-100.00,East,101,3.0,8.0,67,-99.99,,,0.00,12.000000,,2013-04-25 03:43:00,
2013-04-24 20:52:00,59.0,48.0,-100.00,East,101,3.0,8.0,67,-99.99,,,0.00,12.000000,,2013-04-25 03:52:00,
2013-04-24 21:03:00,59.0,48.0,-100.00,East,101,3.0,8.0,67,-99.99,,,0.00,12.000000,,2013-04-25 04:03:00,
2013-04-24 21:33:00,55.0,48.0,-100.00,East,87,1.0,6.0,77,0.00,,,0.00,0.000000,,2013-04-25 04:33:00,
2013-04-24 21:43:00,55.0,48.0,-100.00,East,87,1.0,6.0,77,0.00,,,0.00,0.000000,,2013-04-25 04:43:00,
2013-04-24 21:52:00,55.0,48.0,-100.00,East,87,1.0,6.0,77,0.00,,,0.00,0.000000,,2013-04-25 04:52:00,
2013-04-24 22:02:00,55.0,48.0,-100.00,East,87,1.0,6.0,77,0.00,,,0.00,0.000000,,2013-04-25 05:02:00,
2013-04-24 22:32:00,53.0,48.0,-100.00,ENE,64,1.0,5.0,83,0.00,,,0.00,0.000000,,2013-04-25 05:32:00,
2013-04-24 22:42:00,53.0,48.0,-100.00,ENE,64,1.0,5.0,83,0.00,,,0.00,0.000000,,2013-04-25 05:42:00,
2013-04-24 22:52:00,53.0,48.0,-100.00,ENE,64,1.0,5.0,83,0.00,,,0.00,0.000000,,2013-04-25 05:52:00,
2013-04-24 23:01:00,53.0,48.0,-100.00,ENE,64,1.0,5.0,83,0.00,,,0.00,0.000000,,2013-04-25 06:01:00,